Historique des mesures à Cassis (13260), France
Quotidien Résumé Juillet 31, 2017 Unités:  Métrique    US   Métrique/US
« Précédent (Jour)
Suivant (Jour) »
Quotidien Hebdomadaire Mensuel Annuel Période au choix
  Maximum: Minimum: Moyenne:
Température: TemperatureC °C 23.0 °C 29 °C
Point de rosée: DewpointC °C 12.5 °C 15.5 °C
Humidité: Humidity % 32 % 43 %
Vitesse du vent: 0 km/h 0 km/h 5 km/h
Rafales: 0 km/h - -
Vent:- - SE
Pression: PressurehPa hPa 1008.0 hPa -
Précipitations: 0.0 mm    
Historical Graphs
 
 
Mesures pour : Juillet 31, 2017
Heure Temperature Point de rosée Pression Vent Vitesse du vent Rafales Humidité Pluie (par heure) Conditions
TemperatureC °C DewpointC °C PressurehPa hPa Calm     Humidity % HourlyPrecipMM mm SoftwareType W/m2
00:11 24.5 °C 16.7 °C 1010.7 hPa Calm     62 % 0.0 mm open2300-1.11 W/m2
01:11 24.0 °C 16.1 °C 1010.7 hPa Calm     61 % 0.0 mm open2300-1.11 W/m2
02:11 23.8 °C 14.5 °C 1010.4 hPa Calm   2.3 km/h 56 % 0.0 mm open2300-1.11 W/m2
03:11 23.8 °C 14.2 °C 1010.0 hPa North 2.9 km/h 2.9 km/h 55 % 0.0 mm open2300-1.11 W/m2
04:11 23.8 °C 14.2 °C 1010.4 hPa North 2.3 km/h 5.6 km/h 55 % 0.0 mm open2300-1.11 W/m2
05:11 23.6 °C 14.3 °C 1010.0 hPa NNW 4.7 km/h 4.7 km/h 56 % 0.0 mm open2300-1.11 W/m2
06:11 23.8 °C 14.5 °C 1010.4 hPa Calm   4.2 km/h 56 % 0.0 mm open2300-1.11 W/m2
07:11 23.0 °C 14.2 °C 1010.4 hPa WNW 5.6 km/h 8 km/h 58 % 0.0 mm open2300-1.11 W/m2
08:11 26.4 °C 16.0 °C 1010.4 hPa Calm   2.3 km/h 53 % 0.0 mm open2300-1.11 W/m2
09:11 28.2 °C 15.4 °C 1010.0 hPa East 8 km/h 10.3 km/h 46 % 0.0 mm open2300-1.11 W/m2
10:11 29.6 °C 16.1 °C 1010.0 hPa ESE 9.3 km/h 17.9 km/h 44 % 0.0 mm open2300-1.11 W/m2
11:11 33.5 °C 17.2 °C 1009.7 hPa South 4.2 km/h 15.6 km/h 38 % 0.0 mm open2300-1.11 W/m2
12:11 35.6 °C 19.0 °C 1009.7 hPa SE 2.3 km/h 2.9 km/h 38 % 0.0 mm open2300-1.11 W/m2
13:11 36.2 °C 19.6 °C 1009.4 hPa SE 7.6 km/h 8 km/h 38 % 0.0 mm open2300-1.11 W/m2
14:11 36.8 °C 19.6 °C 1009.0 hPa SSE 7.6 km/h 7.6 km/h 37 % 0.0 mm open2300-1.11 W/m2
15:11 36.5 °C 19.4 °C 1008.7 hPa SE 16.9 km/h 16.9 km/h 37 % 0.0 mm open2300-1.11 W/m2
16:11 36.2 °C 19.1 °C 1008.7 hPa ESE 9.8 km/h 16.3 km/h 37 % 0.0 mm open2300-1.11 W/m2
17:11 35.9 °C 18.4 °C 1008.0 hPa SSE 9.8 km/h 21.6 km/h 36 % 0.0 mm open2300-1.11 W/m2
18:11 35.9 °C 17.0 °C 1008.0 hPa ESE 2.9 km/h 8.9 km/h 33 % 0.0 mm open2300-1.11 W/m2
19:11 35.0 °C 16.7 °C 1008.0 hPa SE 6.9 km/h 6.9 km/h 34 % 0.0 mm open2300-1.11 W/m2
20:11 33.7 °C 16.0 °C 1008.0 hPa SE 5.1 km/h 9.3 km/h 35 % 0.0 mm open2300-1.11 W/m2
21:11 32.1 °C 14.6 °C 1008.7 hPa SE 2.9 km/h 9.3 km/h 35 % 0.0 mm open2300-1.11 W/m2
22:11 31.4 °C 13.1 °C 1009.4 hPa ENE 6.9 km/h 10.3 km/h 33 % 0.0 mm open2300-1.11 W/m2
23:11 31.2 °C 12.5 °C 1009.4 hPa SE 8 km/h 16.9 km/h 32 % 0.0 mm open2300-1.11 W/m2
Observations météo à CASSIS
WU-History script by Weather Underground - 1 mb